createdAt,value
2023-01-27T00:01:58.532Z,20.27
2023-01-27T00:04:24.864Z,20.28
2023-01-27T00:06:51.203Z,20.26
2023-01-27T00:09:17.544Z,20.27
2023-01-27T00:12:02.708Z,20.26
2023-01-27T00:14:29.040Z,20.26
2023-01-27T00:16:55.392Z,20.26
2023-01-27T00:19:21.725Z,20.26
2023-01-27T00:22:06.685Z,20.27
2023-01-27T00:24:38.848Z,20.28
2023-01-27T00:27:05.576Z,20.29
2023-01-27T00:29:31.925Z,20.28
2023-01-27T00:32:18.472Z,20.29
2023-01-27T00:34:44.808Z,20.29
2023-01-27T00:37:11.170Z,20.29
2023-01-27T00:39:37.530Z,20.28
2023-01-27T00:42:03.895Z,20.28
2023-01-27T00:44:30.238Z,20.28
2023-01-27T00:46:56.559Z,20.27
2023-01-27T00:49:22.885Z,20.26
2023-01-27T00:51:49.204Z,20.26
2023-01-27T00:54:15.655Z,20.25
2023-01-27T00:56:45.032Z,20.25
2023-01-27T00:59:12.112Z,20.27
2023-01-27T01:01:39.442Z,20.26
2023-01-27T01:04:05.891Z,20.28
2023-01-27T01:06:32.218Z,20.28
2023-01-27T01:08:58.650Z,20.28
2023-01-27T01:11:24.998Z,20.28
2023-01-27T01:13:52.036Z,20.28
2023-01-27T01:16:19.913Z,20.29
2023-01-27T01:18:46.336Z,20.29
2023-01-27T01:21:12.689Z,20.28
2023-01-27T01:23:39.918Z,20.27
2023-01-27T01:26:06.313Z,20.27
2023-01-27T01:28:32.648Z,20.26
2023-01-27T01:31:09.319Z,20.25
2023-01-27T01:33:35.972Z,20.26
2023-01-27T01:36:05.899Z,20.25
2023-01-27T01:38:32.226Z,20.24
2023-01-27T01:40:58.553Z,20.26
2023-01-27T01:43:26.456Z,20.25
2023-01-27T01:45:59.392Z,20.26
2023-01-27T01:48:31.531Z,20.27
2023-01-27T01:51:08.282Z,20.27
2023-01-27T01:53:37.032Z,20.26
2023-01-27T01:56:05.447Z,20.28
2023-01-27T01:58:31.808Z,20.27
2023-01-27T02:00:58.220Z,20.26
2023-01-27T02:03:24.560Z,20.27
2023-01-27T02:05:50.889Z,20.26
2023-01-27T02:08:21.518Z,20.25
2023-01-27T02:10:47.887Z,20.24
2023-01-27T02:13:15.405Z,20.23
2023-01-27T02:15:41.918Z,20.23
2023-01-27T02:18:08.518Z,20.25
2023-01-27T02:20:41.494Z,20.25
2023-01-27T02:23:11.449Z,20.26
2023-01-27T02:25:40.677Z,20.26
2023-01-27T02:28:07.280Z,20.26
2023-01-27T02:30:33.787Z,20.26
2023-01-27T02:33:00.365Z,20.26
2023-01-27T02:35:32.221Z,20.25
2023-01-27T02:37:58.747Z,20.25
2023-01-27T03:04:24.700Z,20.22
2023-01-27T03:06:51.213Z,20.23
2023-01-27T03:09:17.547Z,20.23
2023-01-27T03:12:02.643Z,20.23
2023-01-27T03:14:47.793Z,20.22
2023-01-27T03:17:34.261Z,20.22
2023-01-27T03:20:00.618Z,20.21
2023-01-27T03:22:27.100Z,20.22
2023-01-27T03:24:54.015Z,20.22
2023-01-27T03:27:20.349Z,20.20
2023-01-27T03:30:05.491Z,20.20
2023-01-27T03:32:31.818Z,20.19
2023-01-27T03:35:39.034Z,20.19
2023-01-27T03:38:25.376Z,20.17
2023-01-27T03:41:10.379Z,20.17
2023-01-27T03:43:55.513Z,20.16
2023-01-27T03:46:22.998Z,20.16
2023-01-27T03:48:50.263Z,20.18
2023-01-27T03:51:16.603Z,20.19
2023-01-27T03:53:43.141Z,20.20
2023-01-27T03:56:09.474Z,20.21
2023-01-27T03:58:36.181Z,20.23
2023-01-27T04:01:06.861Z,20.24
2023-01-27T04:03:52.653Z,20.23
2023-01-27T04:06:38.597Z,20.25
2023-01-27T04:09:05.021Z,20.25
2023-01-27T04:11:50.083Z,20.28
2023-01-27T04:14:16.419Z,20.29
2023-01-27T04:16:42.778Z,20.29
2023-01-27T04:19:09.618Z,20.29
2023-01-27T04:21:35.962Z,20.30
2023-01-27T04:24:02.361Z,20.30
2023-01-27T04:26:33.175Z,20.29
2023-01-27T04:29:00.497Z,20.28
2023-01-27T04:31:26.875Z,20.28
2023-01-27T04:33:53.368Z,20.27
2023-01-27T04:36:19.785Z,20.27
2023-01-27T04:38:46.490Z,20.27
2023-01-27T04:41:12.919Z,20.26
2023-01-27T04:43:39.240Z,20.27
2023-01-27T04:46:05.608Z,20.26
2023-01-27T04:48:31.936Z,20.29
2023-01-27T04:50:58.324Z,20.28
2023-01-27T04:53:24.667Z,20.27
2023-01-27T04:55:51.025Z,20.28
2023-01-27T04:58:17.871Z,20.28
2023-01-27T05:00:44.761Z,20.26
2023-01-27T05:03:11.391Z,20.26
2023-01-27T05:05:38.252Z,20.26
2023-01-27T05:08:07.657Z,20.27
2023-01-27T05:10:33.976Z,20.28
2023-01-27T05:13:01.801Z,20.28
2023-01-27T05:15:28.581Z,20.29
2023-01-27T05:17:54.917Z,20.29
2023-01-27T05:20:21.240Z,20.30
2023-01-27T05:22:47.576Z,20.32
2023-01-27T05:25:14.214Z,20.34
2023-01-27T05:27:41.087Z,20.33
2023-01-27T05:30:08.101Z,20.33
2023-01-27T05:32:34.422Z,20.33
2023-01-27T05:35:00.920Z,20.34
2023-01-27T05:37:27.237Z,20.34
2023-01-27T05:39:53.566Z,20.34
2023-01-27T05:42:19.995Z,20.31
2023-01-27T05:44:46.433Z,20.30
2023-01-27T05:47:12.817Z,20.31
2023-01-27T05:49:39.142Z,20.30
2023-01-27T05:52:05.472Z,20.30
2023-01-27T05:54:31.803Z,20.30
2023-01-27T05:56:58.162Z,20.31
2023-01-27T05:59:24.804Z,20.32
2023-01-27T06:01:51.218Z,20.32
2023-01-27T06:04:17.787Z,20.32
2023-01-27T06:06:44.129Z,20.33
2023-01-27T06:09:11.028Z,20.32
2023-01-27T06:11:37.367Z,20.30
2023-01-27T06:14:03.673Z,20.31
2023-01-27T06:16:30.084Z,20.30
2023-01-27T06:18:56.863Z,20.31
2023-01-27T06:21:23.201Z,20.37
2023-01-27T06:23:49.741Z,20.36
2023-01-27T06:26:16.749Z,20.35
2023-01-27T06:28:43.137Z,20.35
2023-01-27T06:31:10.360Z,20.35
2023-01-27T06:33:36.707Z,20.36
2023-01-27T06:36:12.988Z,20.39
2023-01-27T06:38:39.334Z,20.41
2023-01-27T06:41:05.675Z,20.42
2023-01-27T06:43:32.018Z,20.44
2023-01-27T06:45:58.449Z,20.41
2023-01-27T06:48:24.897Z,20.43
2023-01-27T06:50:51.973Z,20.43
2023-01-27T06:53:18.289Z,20.45
2023-01-27T06:55:45.418Z,20.45
2023-01-27T06:58:11.959Z,20.45
2023-01-27T07:00:38.612Z,20.47
2023-01-27T07:03:05.142Z,20.48
2023-01-27T07:05:31.833Z,19.85
2023-01-27T07:07:58.297Z,19.48
2023-01-27T07:10:24.629Z,19.94
2023-01-27T07:12:50.967Z,20.11
2023-01-27T07:15:17.293Z,20.19
2023-01-27T07:17:43.627Z,20.41
2023-01-27T07:20:14.465Z,20.61
2023-01-27T07:22:41.110Z,20.72
2023-01-27T07:25:07.561Z,20.80
2023-01-27T07:27:33.894Z,20.66
2023-01-27T07:30:00.312Z,20.47
2023-01-27T07:32:28.372Z,20.40
2023-01-27T07:34:54.870Z,20.40
2023-01-27T07:37:21.461Z,20.64
2023-01-27T07:39:48.218Z,20.79
2023-01-27T07:42:14.622Z,20.84
2023-01-27T07:44:43.795Z,20.90
2023-01-27T07:47:10.225Z,20.89
2023-01-27T07:49:36.584Z,20.89
2023-01-27T07:52:03.022Z,20.94
2023-01-27T07:54:29.347Z,20.94
2023-01-27T07:56:55.734Z,20.91
2023-01-27T07:59:22.067Z,20.94
2023-01-27T08:01:48.548Z,20.95
2023-01-27T08:04:14.896Z,20.99
2023-01-27T08:06:41.234Z,20.97
2023-01-27T08:09:07.596Z,20.92
2023-01-27T08:11:34.303Z,20.89
2023-01-27T08:14:00.630Z,20.97
2023-01-27T08:16:27.215Z,20.98
2023-01-27T08:20:29.196Z,20.85
2023-01-27T08:22:05.456Z,20.78
2023-01-27T08:24:31.779Z,20.80
2023-01-27T08:26:58.179Z,20.76
2023-01-27T08:29:24.773Z,20.75
2023-01-27T08:31:51.197Z,20.75
2023-01-27T08:34:17.603Z,20.74
2023-01-27T08:36:43.974Z,20.73
2023-01-27T08:39:10.462Z,20.73
2023-01-27T08:41:36.802Z,20.74
2023-01-27T08:44:03.136Z,20.75
2023-01-27T08:46:29.477Z,20.76
2023-01-27T08:48:55.799Z,20.76
2023-01-27T08:51:22.137Z,20.77
2023-01-27T08:53:48.451Z,20.80
2023-01-27T08:56:14.813Z,20.77
2023-01-27T08:58:41.132Z,20.79
2023-01-27T09:01:07.832Z,20.81
2023-01-27T09:03:34.194Z,20.80
2023-01-27T09:06:00.524Z,20.80
2023-01-27T09:08:26.886Z,20.80
2023-01-27T09:10:53.205Z,20.81
2023-01-27T09:13:22.128Z,20.80
2023-01-27T09:15:50.631Z,20.79
2023-01-27T09:18:17.082Z,20.78
2023-01-27T09:20:43.407Z,19.54
2023-01-27T09:23:09.798Z,18.80
2023-01-27T09:25:36.106Z,19.78
2023-01-27T09:28:02.429Z,20.12
2023-01-27T09:30:28.797Z,20.34
2023-01-27T09:32:58.663Z,20.47
2023-01-27T09:35:25.009Z,20.53
2023-01-27T09:37:54.944Z,20.58
2023-01-27T09:40:41.772Z,20.60
2023-01-27T09:43:15.268Z,20.63
2023-01-27T09:45:48.044Z,19.63
2023-01-27T09:48:33.488Z,20.60
2023-01-27T09:51:18.629Z,21.14
2023-01-27T09:53:57.246Z,21.40
2023-01-27T09:56:38.122Z,21.62
2023-01-27T09:59:22.788Z,21.69
2023-01-27T10:01:56.423Z,21.69
2023-01-27T10:04:30.089Z,21.79
2023-01-27T10:07:07.313Z,21.81
2023-01-27T10:09:44.202Z,21.81
2023-01-27T10:12:17.102Z,21.80
2023-01-27T10:15:02.338Z,21.72
2023-01-27T10:17:31.266Z,21.57
2023-01-27T10:20:19.195Z,21.72
2023-01-27T10:22:47.105Z,21.73
2023-01-27T10:25:22.697Z,21.69
2023-01-27T10:27:49.099Z,21.54
2023-01-27T10:30:23.344Z,21.60
2023-01-27T10:32:51.411Z,21.57
2023-01-27T10:35:19.219Z,21.64
2023-01-27T10:37:47.581Z,21.65
2023-01-27T10:40:19.991Z,21.74
2023-01-27T10:42:49.721Z,21.72
2023-01-27T10:45:21.454Z,21.71
2023-01-27T10:48:06.677Z,21.77
2023-01-27T10:50:39.738Z,21.64
2023-01-27T10:53:13.529Z,21.74
2023-01-27T10:55:42.852Z,21.47
2023-01-27T10:58:17.274Z,21.31
2023-01-27T11:01:18.022Z,21.29
2023-01-27T11:03:41.244Z,21.25
2023-01-27T11:06:08.532Z,21.29
2023-01-27T11:08:35.892Z,21.45
2023-01-27T11:11:22.164Z,21.56
2023-01-27T11:13:48.481Z,21.52
2023-01-27T11:16:15.922Z,21.62
2023-01-27T11:18:43.125Z,21.64
2023-01-27T11:21:13.521Z,21.63
2023-01-27T11:23:40.247Z,21.68
2023-01-27T11:26:10.470Z,21.63
2023-01-27T11:28:42.894Z,21.43
2023-01-27T11:31:15.355Z,21.54
2023-01-27T11:34:07.926Z,21.69
2023-01-27T11:36:34.384Z,21.54
2023-01-27T11:39:06.250Z,21.54
2023-01-27T11:41:33.639Z,21.71
2023-01-27T11:44:01.366Z,21.68
2023-01-27T11:46:30.497Z,21.67
2023-01-27T11:48:57.088Z,21.61
2023-01-27T11:51:24.007Z,21.53
2023-01-27T11:54:02.231Z,21.51
2023-01-27T11:56:28.573Z,21.63
2023-01-27T11:58:57.543Z,21.77
2023-01-27T12:01:24.512Z,21.81
2023-01-27T12:03:59.990Z,21.66
2023-01-27T12:06:32.598Z,21.59
2023-01-27T12:08:58.934Z,21.53
2023-01-27T12:11:26.086Z,21.54
2023-01-27T12:13:56.271Z,21.54
2023-01-27T12:16:24.231Z,21.58
2023-01-27T12:18:52.116Z,21.58
2023-01-27T12:21:18.437Z,21.68
2023-01-27T12:23:48.729Z,21.66
2023-01-27T12:26:15.050Z,21.59
2023-01-27T12:28:41.295Z,21.71
2023-01-27T12:31:11.460Z,21.84
2023-01-27T12:33:38.892Z,21.90
2023-01-27T12:36:23.295Z,21.92
2023-01-27T12:38:56.181Z,21.82
2023-01-27T12:41:23.690Z,21.91
2023-01-27T12:43:51.018Z,21.98
2023-01-27T12:46:17.302Z,21.98
2023-01-27T12:48:44.851Z,21.99
2023-01-27T12:51:14.742Z,21.92
2023-01-27T12:53:44.057Z,21.94
2023-01-27T12:56:20.705Z,21.83
2023-01-27T12:58:56.722Z,21.82
2023-01-27T13:01:24.743Z,21.82
2023-01-27T13:03:52.188Z,21.82
2023-01-27T13:06:18.789Z,21.64
2023-01-27T13:08:45.140Z,21.78
2023-01-27T13:11:11.458Z,21.84
2023-01-27T13:13:37.796Z,21.89
2023-01-27T13:16:04.122Z,21.67
2023-01-27T13:18:38.858Z,21.56
2023-01-27T13:21:15.563Z,21.56
2023-01-27T13:23:42.355Z,21.44
2023-01-27T13:26:08.628Z,21.28
2023-01-27T13:28:52.257Z,21.32
2023-01-27T13:31:21.997Z,21.41
2023-01-27T13:33:51.859Z,21.43
2023-01-27T13:36:38.135Z,21.37
2023-01-27T13:39:04.498Z,21.38
2023-01-27T13:41:39.462Z,21.40
2023-01-27T13:44:10.602Z,21.40
2023-01-27T13:46:37.549Z,21.46
2023-01-27T13:49:04.956Z,21.47
2023-01-27T13:51:31.311Z,21.50
2023-01-27T13:54:04.056Z,21.56
2023-01-27T13:56:45.619Z,21.51
2023-01-27T13:59:19.797Z,21.46
2023-01-27T14:02:01.501Z,21.51
2023-01-27T14:04:36.821Z,21.50
2023-01-27T14:07:05.880Z,21.52
2023-01-27T14:09:35.107Z,21.51
2023-01-27T14:12:30.756Z,21.57
2023-01-27T14:15:06.108Z,21.57
2023-01-27T14:17:37.691Z,21.56
2023-01-27T14:20:13.136Z,21.52
2023-01-27T14:22:43.694Z,21.49
2023-01-27T14:25:21.502Z,21.52
2023-01-27T14:27:48.677Z,21.58
2023-01-27T14:30:24.998Z,21.59
2023-01-27T14:32:57.879Z,21.57
2023-01-27T14:35:30.135Z,21.52
2023-01-27T14:38:03.839Z,21.33
2023-01-27T14:40:38.686Z,21.25
2023-01-27T14:43:08.884Z,21.22
2023-01-27T14:45:44.140Z,21.20
2023-01-27T14:48:14.465Z,21.18
2023-01-27T14:50:47.156Z,21.18
2023-01-27T14:53:30.296Z,21.15
2023-01-27T14:56:06.993Z,21.15
2023-01-27T14:58:42.475Z,21.15
2023-01-27T15:01:27.430Z,21.15
2023-01-27T15:04:16.680Z,21.15
2023-01-27T15:06:50.240Z,21.15
2023-01-27T15:09:20.008Z,21.12
2023-01-27T15:12:02.735Z,21.12
2023-01-27T15:14:32.013Z,21.10
2023-01-27T15:17:17.213Z,21.09
2023-01-27T15:19:49.559Z,21.06
2023-01-27T15:22:19.078Z,21.05
2023-01-27T15:24:48.309Z,21.02
2023-01-27T15:27:14.633Z,21.03
2023-01-27T15:29:40.980Z,21.02
2023-01-27T15:32:10.494Z,21.01
2023-01-27T15:34:36.874Z,21.01
2023-01-27T15:37:13.244Z,21.01
2023-01-27T15:39:59.300Z,21.01
2023-01-27T15:42:48.591Z,21.04
2023-01-27T15:45:26.908Z,21.08
2023-01-27T15:48:19.288Z,21.05
2023-01-27T15:50:46.685Z,21.03
2023-01-27T15:53:16.784Z,21.04
2023-01-27T15:55:50.243Z,21.02
2023-01-27T15:58:31.958Z,21.01
2023-01-27T16:00:58.379Z,20.99
2023-01-27T16:03:27.240Z,21.01
2023-01-27T16:05:58.924Z,21.00
2023-01-27T16:08:25.261Z,21.00
2023-01-27T16:10:51.577Z,20.99
2023-01-27T16:13:22.378Z,21.00
2023-01-27T16:15:48.879Z,21.01
2023-01-27T16:18:15.194Z,21.02
2023-01-27T16:20:52.204Z,21.01
2023-01-27T16:23:30.395Z,21.00
2023-01-27T16:26:03.203Z,20.98
2023-01-27T16:28:29.551Z,20.97
2023-01-27T16:31:13.932Z,20.95
2023-01-27T16:33:46.700Z,20.95
2023-01-27T16:36:18.504Z,20.95
2023-01-27T16:38:45.606Z,20.98
2023-01-27T16:41:21.839Z,20.97
2023-01-27T16:43:55.310Z,20.99
2023-01-27T16:46:27.820Z,20.96
2023-01-27T16:48:54.237Z,20.97
2023-01-27T16:51:21.140Z,20.97
2023-01-27T16:53:48.111Z,20.96
2023-01-27T16:56:21.959Z,20.96
2023-01-27T16:58:50.093Z,20.94
2023-01-27T17:01:21.953Z,19.38
2023-01-27T17:03:48.344Z,20.13
2023-01-27T17:06:15.077Z,20.56
2023-01-27T17:08:45.331Z,20.72
2023-01-27T17:11:21.327Z,20.82
2023-01-27T17:13:49.979Z,20.86
2023-01-27T17:16:25.951Z,20.90
2023-01-27T17:18:53.123Z,20.95
2023-01-27T17:21:32.845Z,20.98
2023-01-27T17:24:00.345Z,20.98
2023-01-27T17:26:26.727Z,20.98
2023-01-27T17:28:53.042Z,20.98
2023-01-27T17:31:20.540Z,21.00
2023-01-27T17:33:47.971Z,21.00
2023-01-27T17:36:14.306Z,21.03
2023-01-27T17:38:44.519Z,21.22
2023-01-27T17:41:43.063Z,21.34
2023-01-27T17:44:10.854Z,21.54
2023-01-27T17:46:37.305Z,21.59
2023-01-27T17:49:07.090Z,21.67
2023-01-27T17:51:33.464Z,21.66
2023-01-27T17:53:59.780Z,21.70
2023-01-27T17:56:29.941Z,21.69
2023-01-27T17:59:15.852Z,21.69
2023-01-27T18:01:42.338Z,21.65
2023-01-27T18:04:08.744Z,21.75
2023-01-27T18:06:35.480Z,21.69
2023-01-27T18:09:02.385Z,21.70
2023-01-27T18:11:33.681Z,21.73
2023-01-27T18:14:09.531Z,21.66
2023-01-27T18:16:35.862Z,21.64
2023-01-27T18:19:22.402Z,21.61
2023-01-27T18:21:48.718Z,22.04
2023-01-27T18:24:19.960Z,22.02
2023-01-27T18:26:46.334Z,22.11
2023-01-27T18:29:12.582Z,22.09
2023-01-27T18:31:45.776Z,22.05
2023-01-27T18:34:12.047Z,21.93
2023-01-27T18:36:39.033Z,21.96
2023-01-27T18:39:24.341Z,21.96
2023-01-27T18:41:50.683Z,21.71
2023-01-27T18:44:18.968Z,21.67
2023-01-27T18:46:45.359Z,21.57
2023-01-27T18:49:12.022Z,21.51
2023-01-27T18:51:38.403Z,21.65
2023-01-27T18:54:05.399Z,21.57
2023-01-27T18:56:31.726Z,21.54
2023-01-27T18:58:58.051Z,21.42
2023-01-27T19:01:24.384Z,21.37
2023-01-27T19:03:57.138Z,21.39
2023-01-27T19:06:23.589Z,21.45
2023-01-27T19:08:51.954Z,21.51
2023-01-27T19:11:18.288Z,21.52
2023-01-27T19:13:44.640Z,21.58
2023-01-27T19:16:12.678Z,21.63
2023-01-27T19:18:39.038Z,21.67
2023-01-27T19:21:05.363Z,21.67
2023-01-27T19:23:32.610Z,21.65
2023-01-27T19:25:59.348Z,21.61
2023-01-27T19:28:32.531Z,21.64
2023-01-27T19:30:59.097Z,21.66
2023-01-27T19:33:25.937Z,21.69
2023-01-27T19:35:56.112Z,21.63
2023-01-27T19:38:23.125Z,21.63
2023-01-27T19:40:49.525Z,21.66
2023-01-27T19:43:15.876Z,21.57
2023-01-27T19:45:42.354Z,21.41
2023-01-27T19:48:26.957Z,21.37
2023-01-27T19:50:53.324Z,21.37
2023-01-27T19:53:19.718Z,21.38
2023-01-27T19:55:49.455Z,21.31
2023-01-27T19:58:21.063Z,21.37
2023-01-27T20:00:47.611Z,21.40
2023-01-27T20:03:13.991Z,21.37
2023-01-27T20:05:40.519Z,21.37
2023-01-27T20:08:09.123Z,20.20
2023-01-27T20:10:35.472Z,20.54
2023-01-27T20:13:03.189Z,20.98
2023-01-27T20:15:30.505Z,21.27
2023-01-27T20:17:56.865Z,21.46
2023-01-27T20:20:23.313Z,21.53
2023-01-27T20:22:49.643Z,21.55
2023-01-27T20:25:16.690Z,21.57
2023-01-27T20:27:43.578Z,21.59
2023-01-27T20:30:13.959Z,21.63
2023-01-27T20:32:40.285Z,21.64
2023-01-27T20:35:06.620Z,21.62
2023-01-27T20:37:32.960Z,21.61
2023-01-27T20:39:59.336Z,21.54
2023-01-27T20:42:25.656Z,21.53
2023-01-27T20:44:52.099Z,21.56
2023-01-27T20:47:18.530Z,21.56
2023-01-27T20:49:44.857Z,21.54
2023-01-27T20:52:11.405Z,21.54
2023-01-27T20:54:37.889Z,21.51
2023-01-27T20:57:04.514Z,21.51
2023-01-27T20:59:30.835Z,21.52
2023-01-27T21:01:57.219Z,21.52
2023-01-27T21:04:23.584Z,21.44
2023-01-27T21:06:49.923Z,21.34
2023-01-27T21:09:16.250Z,21.32
2023-01-27T21:11:43.491Z,21.36
2023-01-27T21:14:09.854Z,21.39
2023-01-27T21:16:36.226Z,21.37
2023-01-27T21:19:02.678Z,21.24
2023-01-27T21:21:29.811Z,21.24
2023-01-27T21:23:56.650Z,21.15
2023-01-27T21:26:23.013Z,21.05
2023-01-27T21:28:49.371Z,21.15
2023-01-27T21:31:16.630Z,21.24
2023-01-27T21:33:43.113Z,21.29
2023-01-27T21:36:10.757Z,21.25
2023-01-27T21:38:37.292Z,21.28
2023-01-27T21:41:06.768Z,21.28
2023-01-27T21:43:51.971Z,21.26
2023-01-27T21:46:18.383Z,21.19
2023-01-27T21:48:44.740Z,21.15
2023-01-27T21:51:11.234Z,21.11
2023-01-27T21:53:37.555Z,21.08
2023-01-27T21:56:04.541Z,21.07
2023-01-27T21:58:30.966Z,21.04
2023-01-27T22:00:57.386Z,21.02
2023-01-27T22:03:23.885Z,21.00
2023-01-27T22:05:50.222Z,20.99
2023-01-27T22:08:16.543Z,20.96
2023-01-27T22:10:42.870Z,20.97
2023-01-27T22:13:10.545Z,20.95
2023-01-27T22:15:36.877Z,20.92
2023-01-27T22:18:03.201Z,20.90
2023-01-27T22:20:29.520Z,20.89
2023-01-27T22:22:55.852Z,20.87
2023-01-27T22:25:22.432Z,20.87
2023-01-27T22:27:48.823Z,20.86
2023-01-27T22:30:16.040Z,20.85
2023-01-27T22:32:42.425Z,20.82
2023-01-27T22:35:08.966Z,20.82
2023-01-27T22:37:35.366Z,20.80
2023-01-27T22:40:01.785Z,20.79
2023-01-27T22:42:28.142Z,20.77
2023-01-27T22:44:54.467Z,20.75
2023-01-27T22:47:20.798Z,20.74
2023-01-27T22:49:47.115Z,20.74
2023-01-27T22:52:13.440Z,20.72
2023-01-27T22:54:39.777Z,20.70
2023-01-27T22:57:06.110Z,20.70
2023-01-27T22:59:32.420Z,20.69
2023-01-27T23:01:58.767Z,20.67
2023-01-27T23:04:25.080Z,20.66
2023-01-27T23:06:51.399Z,20.65
2023-01-27T23:09:17.731Z,20.63
2023-01-27T23:11:44.046Z,20.62
2023-01-27T23:14:10.387Z,20.61
2023-01-27T23:16:36.804Z,20.59
2023-01-27T23:19:03.164Z,20.59
2023-01-27T23:21:31.344Z,20.58
2023-01-27T23:23:57.928Z,20.64
2023-01-27T23:26:24.274Z,20.64
2023-01-27T23:28:50.590Z,20.64
2023-01-27T23:31:17.077Z,20.65
2023-01-27T23:33:43.491Z,20.63
2023-01-27T23:36:10.244Z,20.62
2023-01-27T23:38:36.584Z,20.61
2023-01-27T23:41:03.187Z,20.57
2023-01-27T23:43:31.009Z,20.55
2023-01-27T23:45:57.515Z,20.51
2023-01-27T23:48:23.839Z,20.49
2023-01-27T23:50:50.184Z,20.48
2023-01-27T23:53:16.507Z,20.48
2023-01-27T23:55:42.850Z,20.46
2023-01-27T23:58:09.831Z,20.45
